Weather at Learmonth Airport

Public forecast

Using degrees Celsius for public forecast. Weather courtesy of forecast.io.

Current aviation weather report (METAR) for Learmonth Airport

Retrieved 2021/01/18 18:30 UTC (18 minutes ago):

YPLM 181830Z AUTO 21008KT 9999 // NCD 29/22 Q1007 RF000/0000

Aviation forecast (TAF) for Learmonth Airport

Retrieved 2021/01/18 18:00 UTC (48 minutes ago):

TAF YPLM 181710Z 1818/1918 21008KT CAVOK FM182100 17010KT CAVOK FM190400 06008KT CAVOK FM190800 24014KT CAVOK